createdAt,value
2022-07-29T00:00:56.546Z,22.86
2022-07-29T00:03:23.183Z,23.04
2022-07-29T00:05:49.748Z,23.20
2022-07-29T00:08:16.550Z,23.21
2022-07-29T00:10:43.460Z,23.22
2022-07-29T00:13:10.028Z,23.17
2022-07-29T00:15:36.472Z,23.14
2022-07-29T00:18:02.966Z,23.15
2022-07-29T00:20:29.474Z,23.17
2022-07-29T00:22:55.964Z,23.16
2022-07-29T00:25:22.703Z,23.25
2022-07-29T00:27:49.147Z,23.22
2022-07-29T00:30:15.780Z,23.26
2022-07-29T00:32:42.477Z,23.42
2022-07-29T00:35:27.784Z,23.42
2022-07-29T00:37:54.303Z,23.34
2022-07-29T00:40:23.550Z,23.36
2022-07-29T00:42:51.655Z,23.32
2022-07-29T00:45:18.874Z,23.22
2022-07-29T00:47:46.294Z,23.14
2022-07-29T00:50:14.179Z,23.14
2022-07-29T00:52:42.474Z,23.10
2022-07-29T00:55:12.049Z,22.99
2022-07-29T00:57:39.657Z,22.89
2022-07-29T01:00:08.628Z,22.87
2022-07-29T01:02:35.212Z,22.82
2022-07-29T01:05:03.018Z,22.90
2022-07-29T01:07:31.103Z,22.91
2022-07-29T01:09:58.207Z,22.83
2022-07-29T01:12:27.835Z,22.82
2022-07-29T01:14:56.544Z,22.79
2022-07-29T01:17:33.402Z,22.72
2022-07-29T01:20:23.327Z,22.64
2022-07-29T01:23:10.611Z,22.61
2022-07-29T01:25:48.582Z,22.41
2022-07-29T01:28:38.282Z,22.33
2022-07-29T01:31:07.789Z,22.39
2022-07-29T01:33:50.512Z,22.52
2022-07-29T01:36:36.143Z,22.64
2022-07-29T01:39:18.137Z,22.69
2022-07-29T01:42:00.284Z,22.69
2022-07-29T01:44:37.591Z,22.71
2022-07-29T01:47:13.488Z,22.72
2022-07-29T01:49:44.031Z,22.81
2022-07-29T01:52:19.969Z,22.82
2022-07-29T01:54:53.263Z,22.72
2022-07-29T01:57:23.273Z,22.70
2022-07-29T01:59:51.990Z,22.68
2022-07-29T02:02:19.915Z,22.75
2022-07-29T02:04:49.678Z,22.73
2022-07-29T02:07:21.932Z,22.78
2022-07-29T02:09:51.087Z,22.72
2022-07-29T02:12:20.256Z,22.82
2022-07-29T02:14:50.846Z,22.84
2022-07-29T02:17:20.849Z,22.78
2022-07-29T02:19:48.569Z,22.76
2022-07-29T02:22:17.504Z,22.78
2022-07-29T02:24:45.638Z,22.81
2022-07-29T02:27:13.153Z,22.73
2022-07-29T02:29:40.804Z,22.66
2022-07-29T02:32:09.482Z,22.51
2022-07-29T02:34:39.026Z,22.49
2022-07-29T02:37:06.356Z,22.40
2022-07-29T02:39:35.783Z,22.43
2022-07-29T02:42:06.689Z,22.51
2022-07-29T02:44:35.958Z,22.44
2022-07-29T02:47:14.467Z,22.43
2022-07-29T02:49:53.508Z,22.46
2022-07-29T02:52:27.341Z,22.43
2022-07-29T02:55:11.722Z,22.18
2022-07-29T02:57:54.549Z,22.06
2022-07-29T03:00:25.121Z,21.95
2022-07-29T03:02:54.794Z,21.98
2022-07-29T03:05:22.841Z,21.98
2022-07-29T03:07:57.353Z,22.07
2022-07-29T03:10:26.687Z,22.08
2022-07-29T03:12:53.966Z,22.12
2022-07-29T03:15:21.758Z,22.14
2022-07-29T03:17:51.733Z,22.16
2022-07-29T03:20:18.806Z,22.24
2022-07-29T03:22:47.978Z,22.41
2022-07-29T03:25:16.618Z,22.37
2022-07-29T03:27:43.961Z,22.30
2022-07-29T03:30:12.001Z,22.21
2022-07-29T03:32:45.346Z,22.14
2022-07-29T03:35:12.429Z,22.11
2022-07-29T03:37:38.929Z,22.07
2022-07-29T03:40:11.116Z,21.97
2022-07-29T03:42:40.766Z,22.10
2022-07-29T03:45:11.084Z,22.13
2022-07-29T03:47:51.089Z,22.23
2022-07-29T03:50:21.114Z,22.24
2022-07-29T03:52:48.612Z,21.99
2022-07-29T03:55:16.043Z,21.87
2022-07-29T03:57:43.596Z,21.87
2022-07-29T04:00:11.278Z,21.84
2022-07-29T04:02:40.334Z,21.88
2022-07-29T04:05:13.556Z,22.01
2022-07-29T04:07:40.935Z,22.03
2022-07-29T04:10:08.794Z,22.09
2022-07-29T04:12:36.064Z,22.06
2022-07-29T04:15:04.360Z,22.00
2022-07-29T04:17:31.182Z,21.98
2022-07-29T04:19:57.646Z,21.96
2022-07-29T04:22:24.142Z,22.00
2022-07-29T04:24:51.849Z,22.03
2022-07-29T04:27:18.318Z,22.02
2022-07-29T04:29:56.377Z,22.03
2022-07-29T04:32:24.355Z,22.16
2022-07-29T04:34:50.818Z,22.25
2022-07-29T04:37:17.286Z,22.38
2022-07-29T04:39:43.771Z,22.35
2022-07-29T04:42:10.261Z,22.30
2022-07-29T04:44:39.496Z,22.24
2022-07-29T04:47:09.013Z,22.19
2022-07-29T04:49:35.492Z,22.10
2022-07-29T04:52:01.957Z,22.12
2022-07-29T04:54:28.436Z,22.12
2022-07-29T04:56:54.893Z,22.26
2022-07-29T04:59:21.404Z,22.29
2022-07-29T05:01:47.949Z,22.31
2022-07-29T05:04:14.759Z,22.32
2022-07-29T05:06:41.403Z,22.38
2022-07-29T05:09:07.872Z,22.42
2022-07-29T05:11:34.329Z,22.49
2022-07-29T05:14:00.772Z,22.52
2022-07-29T05:16:28.660Z,22.55
2022-07-29T05:18:55.118Z,22.55
2022-07-29T05:21:21.588Z,22.67
2022-07-29T05:23:48.181Z,22.80
2022-07-29T05:26:14.645Z,22.92
2022-07-29T05:28:41.089Z,22.93
2022-07-29T05:31:07.607Z,22.99
2022-07-29T05:33:36.023Z,23.02
2022-07-29T05:36:06.518Z,23.00
2022-07-29T05:38:33.651Z,22.94
2022-07-29T05:41:00.659Z,23.13
2022-07-29T05:43:30.857Z,23.11
2022-07-29T05:45:57.834Z,23.14
2022-07-29T05:48:25.245Z,23.10
2022-07-29T05:50:51.695Z,23.17
2022-07-29T05:53:19.140Z,23.16
2022-07-29T05:55:47.510Z,23.13
2022-07-29T05:58:13.994Z,23.06
2022-07-29T06:00:40.878Z,23.00
2022-07-29T06:03:07.581Z,23.09
2022-07-29T06:05:34.062Z,23.20
2022-07-29T06:08:00.544Z,23.37
2022-07-29T06:10:27.793Z,23.38
2022-07-29T06:12:54.669Z,23.44
2022-07-29T06:15:21.794Z,23.43
2022-07-29T06:17:59.412Z,23.55
2022-07-29T06:20:27.732Z,23.63
2022-07-29T06:22:54.518Z,23.76
2022-07-29T06:25:21.133Z,23.69
2022-07-29T06:27:47.570Z,23.54
2022-07-29T06:30:14.258Z,23.93
2022-07-29T06:32:43.184Z,24.16
2022-07-29T06:35:39.490Z,24.43
2022-07-29T06:37:59.627Z,24.10
2022-07-29T06:40:45.463Z,24.12
2022-07-29T06:43:12.142Z,24.41
2022-07-29T06:45:42.153Z,24.31
2022-07-29T06:48:09.028Z,24.49
2022-07-29T06:50:35.576Z,24.29
2022-07-29T06:53:02.041Z,23.98
2022-07-29T06:55:28.529Z,24.43
2022-07-29T06:57:55.051Z,24.47
2022-07-29T07:00:21.554Z,24.27
2022-07-29T07:02:48.121Z,24.40
2022-07-29T07:05:14.683Z,24.61
2022-07-29T07:07:41.157Z,24.52
2022-07-29T07:10:08.106Z,24.62
2022-07-29T07:12:34.612Z,24.90
2022-07-29T07:15:01.123Z,25.00
2022-07-29T07:17:27.633Z,24.64
2022-07-29T07:19:54.100Z,24.63
2022-07-29T07:22:20.586Z,24.53
2022-07-29T07:24:47.061Z,24.42
2022-07-29T07:27:13.546Z,24.67
2022-07-29T07:29:42.070Z,24.72
2022-07-29T07:32:10.570Z,24.72
2022-07-29T07:34:38.728Z,24.76
2022-07-29T07:37:05.396Z,24.78
2022-07-29T07:39:31.904Z,24.94
2022-07-29T07:41:58.402Z,24.98
2022-07-29T07:44:24.884Z,24.99
2022-07-29T07:46:51.369Z,25.01
2022-07-29T07:49:17.949Z,24.93
2022-07-29T07:51:44.508Z,25.11
2022-07-29T07:54:17.920Z,25.38
2022-07-29T07:56:45.028Z,25.41
2022-07-29T07:59:11.534Z,25.36
2022-07-29T08:01:54.666Z,25.37
2022-07-29T08:04:27.477Z,25.33
2022-07-29T08:06:55.252Z,25.38
2022-07-29T08:09:29.207Z,25.28
2022-07-29T08:11:58.525Z,25.30
2022-07-29T08:14:25.003Z,25.29
2022-07-29T08:16:52.383Z,25.25
2022-07-29T08:19:19.275Z,25.20
2022-07-29T08:21:45.859Z,25.23
2022-07-29T08:24:31.091Z,25.34
2022-07-29T08:26:57.556Z,25.27
2022-07-29T08:29:24.036Z,25.36
2022-07-29T08:31:50.849Z,25.43
2022-07-29T08:34:17.537Z,25.62
2022-07-29T08:36:44.138Z,25.66
2022-07-29T08:39:10.585Z,25.79
2022-07-29T08:41:37.597Z,25.87
2022-07-29T08:44:04.472Z,25.90
2022-07-29T08:46:31.064Z,25.84
2022-07-29T08:48:57.715Z,25.99
2022-07-29T08:51:26.398Z,26.17
2022-07-29T08:53:53.946Z,26.33
2022-07-29T08:56:21.410Z,26.48
2022-07-29T08:58:51.897Z,26.60
2022-07-29T09:01:23.686Z,26.69
2022-07-29T09:04:05.531Z,26.75
2022-07-29T09:06:35.199Z,26.74
2022-07-29T09:09:01.954Z,26.78
2022-07-29T09:11:29.421Z,26.98
2022-07-29T09:13:56.002Z,27.01
2022-07-29T09:16:43.715Z,27.14
2022-07-29T09:19:24.577Z,27.19
2022-07-29T09:22:03.115Z,27.25
2022-07-29T09:24:47.737Z,27.41
2022-07-29T09:27:26.917Z,27.48
2022-07-29T09:30:08.286Z,27.66
2022-07-29T09:32:55.122Z,27.65
2022-07-29T09:35:24.073Z,27.79
2022-07-29T09:37:51.098Z,27.80
2022-07-29T09:40:20.956Z,27.77
2022-07-29T09:42:48.395Z,28.18
2022-07-29T09:45:31.694Z,28.28
2022-07-29T09:48:03.953Z,28.25
2022-07-29T09:50:41.123Z,28.02
2022-07-29T09:53:07.959Z,28.01
2022-07-29T09:55:47.755Z,27.90
2022-07-29T09:58:19.615Z,27.94
2022-07-29T10:00:47.359Z,27.92
2022-07-29T10:03:15.058Z,28.12
2022-07-29T10:05:42.974Z,28.39
2022-07-29T10:08:11.569Z,28.57
2022-07-29T10:10:40.210Z,28.81
2022-07-29T10:13:15.771Z,28.84
2022-07-29T10:15:46.067Z,28.77
2022-07-29T10:18:18.320Z,28.92
2022-07-29T10:20:45.402Z,29.05
2022-07-29T10:23:12.078Z,28.81
2022-07-29T10:25:38.580Z,28.64
2022-07-29T10:28:06.849Z,28.55
2022-07-29T10:30:34.264Z,28.45
2022-07-29T10:33:38.620Z,28.48
2022-07-29T10:36:21.055Z,28.50
2022-07-29T10:39:08.945Z,28.41
2022-07-29T10:41:55.477Z,28.33
2022-07-29T10:44:24.650Z,28.16
2022-07-29T10:46:52.777Z,28.06
2022-07-29T10:49:24.693Z,28.26
2022-07-29T10:52:02.566Z,28.38
2022-07-29T10:54:42.318Z,28.52
2022-07-29T10:57:17.273Z,28.56
2022-07-29T10:59:46.174Z,28.45
2022-07-29T11:05:22.072Z,29.01
2022-07-29T11:08:19.907Z,28.98
2022-07-29T11:10:48.706Z,28.92
2022-07-29T11:13:44.067Z,28.71
2022-07-29T11:16:10.707Z,28.86
2022-07-29T11:19:00.068Z,29.10
2022-07-29T11:21:54.169Z,29.26
2022-07-29T11:24:33.121Z,29.27
2022-07-29T11:27:19.838Z,29.47
2022-07-29T11:29:53.359Z,29.63
2022-07-29T11:32:22.636Z,29.75
2022-07-29T11:35:17.116Z,29.48
2022-07-29T11:37:52.137Z,29.50
2022-07-29T11:40:22.922Z,29.24
2022-07-29T11:42:51.794Z,29.46
2022-07-29T11:48:29.126Z,29.81
2022-07-29T11:50:58.348Z,29.67
2022-07-29T11:53:25.708Z,29.67
2022-07-29T11:55:56.452Z,29.66
2022-07-29T11:58:26.191Z,29.45
2022-07-29T12:00:55.230Z,29.58
2022-07-29T12:03:35.043Z,29.77
2022-07-29T12:06:02.411Z,29.96
2022-07-29T12:08:28.954Z,30.08
2022-07-29T12:10:55.500Z,30.12
2022-07-29T12:13:22.631Z,30.07
2022-07-29T12:16:00.172Z,30.00
2022-07-29T12:18:27.746Z,29.90
2022-07-29T12:21:03.667Z,29.86
2022-07-29T12:23:35.010Z,29.65
2022-07-29T12:26:07.212Z,29.63
2022-07-29T12:28:40.195Z,29.81
2022-07-29T12:31:13.820Z,29.89
2022-07-29T12:33:40.627Z,29.83
2022-07-29T12:36:10.458Z,29.75
2022-07-29T12:38:41.854Z,29.99
2022-07-29T12:41:09.428Z,30.15
2022-07-29T12:43:36.089Z,30.29
2022-07-29T12:46:14.559Z,30.20
2022-07-29T12:48:43.661Z,30.37
2022-07-29T12:51:12.676Z,30.48
2022-07-29T12:53:39.617Z,30.47
2022-07-29T12:56:26.592Z,30.48
2022-07-29T12:58:54.102Z,30.10
2022-07-29T13:01:22.653Z,29.95
2022-07-29T13:04:03.831Z,30.02
2022-07-29T13:06:36.199Z,30.29
2022-07-29T13:09:17.796Z,30.21
2022-07-29T13:11:51.037Z,30.13
2022-07-29T13:14:35.918Z,30.28
2022-07-29T13:17:11.131Z,30.41
2022-07-29T13:19:44.781Z,30.35
2022-07-29T13:22:13.628Z,30.39
2022-07-29T13:24:56.876Z,30.22
2022-07-29T13:27:29.445Z,30.25
2022-07-29T13:29:58.538Z,30.44
2022-07-29T13:32:27.752Z,30.48
2022-07-29T13:34:55.680Z,30.68
2022-07-29T13:37:22.151Z,30.61
2022-07-29T13:39:52.842Z,30.32
2022-07-29T13:42:20.276Z,30.36
2022-07-29T13:44:46.863Z,30.39
2022-07-29T13:47:13.806Z,30.36
2022-07-29T13:49:40.268Z,30.33
2022-07-29T13:52:08.431Z,30.29
2022-07-29T13:54:42.026Z,30.14
2022-07-29T13:57:09.331Z,29.98
2022-07-29T13:59:35.836Z,29.94
2022-07-29T14:02:02.728Z,30.00
2022-07-29T14:04:29.548Z,30.01
2022-07-29T14:06:56.094Z,29.95
2022-07-29T14:09:22.606Z,29.89
2022-07-29T14:11:51.091Z,29.74
2022-07-29T14:14:17.859Z,29.65
2022-07-29T14:16:48.973Z,29.64
2022-07-29T14:19:18.559Z,29.61
2022-07-29T14:21:45.632Z,29.59
2022-07-29T14:24:16.278Z,29.63
2022-07-29T14:26:48.166Z,29.56
2022-07-29T14:29:14.693Z,29.49
2022-07-29T14:31:41.396Z,29.43
2022-07-29T14:34:07.877Z,29.35
2022-07-29T14:36:34.337Z,29.30
2022-07-29T14:39:00.785Z,29.24
2022-07-29T14:41:29.119Z,29.25
2022-07-29T14:43:55.649Z,29.17
2022-07-29T14:46:22.143Z,29.10
2022-07-29T14:48:48.733Z,29.04
2022-07-29T14:51:15.349Z,29.01
2022-07-29T14:53:41.837Z,29.02
2022-07-29T14:56:34.186Z,28.79
2022-07-29T14:58:54.939Z,27.65
2022-07-29T15:01:21.581Z,26.54
2022-07-29T15:03:48.087Z,25.21
2022-07-29T15:06:14.658Z,24.52
2022-07-29T15:08:41.240Z,23.88
2022-07-29T15:11:07.780Z,23.73
2022-07-29T15:13:35.297Z,23.75
2022-07-29T15:16:02.133Z,23.84
2022-07-29T15:18:28.671Z,23.85
2022-07-29T15:20:55.158Z,23.82
2022-07-29T15:23:21.638Z,23.44
2022-07-29T15:25:48.135Z,23.55
2022-07-29T15:28:14.621Z,23.58
2022-07-29T15:30:41.859Z,23.65
2022-07-29T15:33:10.227Z,23.79
2022-07-29T15:35:40.075Z,23.57
2022-07-29T15:38:07.630Z,23.71
2022-07-29T15:40:34.315Z,23.98
2022-07-29T15:43:06.655Z,24.50
2022-07-29T15:45:41.447Z,24.55
2022-07-29T15:48:09.621Z,24.73
2022-07-29T15:50:36.258Z,24.56
2022-07-29T15:53:03.456Z,24.36
2022-07-29T15:55:30.013Z,24.32
2022-07-29T15:58:00.469Z,24.13
2022-07-29T16:00:27.297Z,24.10
2022-07-29T16:02:53.818Z,24.07
2022-07-29T16:05:20.352Z,24.00
2022-07-29T16:07:46.917Z,23.72
2022-07-29T16:10:13.599Z,23.72
2022-07-29T16:12:40.174Z,23.83
2022-07-29T16:15:10.195Z,23.76
2022-07-29T16:17:37.872Z,23.76
2022-07-29T16:20:05.816Z,23.77
2022-07-29T16:22:32.425Z,23.71
2022-07-29T16:24:58.929Z,23.76
2022-07-29T16:27:35.354Z,23.78
2022-07-29T16:30:06.920Z,23.76
2022-07-29T16:32:33.655Z,23.89
2022-07-29T16:35:02.262Z,23.91
2022-07-29T16:37:33.444Z,23.82
2022-07-29T16:40:00.023Z,23.55
2022-07-29T16:42:45.400Z,23.64
2022-07-29T16:45:12.923Z,23.47
2022-07-29T16:47:39.443Z,23.46
2022-07-29T16:50:06.396Z,23.54
2022-07-29T16:52:33.602Z,23.55
2022-07-29T16:55:00.165Z,23.35
2022-07-29T16:57:26.666Z,23.30
2022-07-29T16:59:53.187Z,23.23
2022-07-29T17:02:19.844Z,23.24
2022-07-29T17:04:46.349Z,23.22
2022-07-29T17:07:13.015Z,23.25
2022-07-29T17:09:40.482Z,23.32
2022-07-29T17:12:07.249Z,23.27
2022-07-29T17:14:33.704Z,23.29
2022-07-29T17:17:02.625Z,23.24
2022-07-29T17:19:35.340Z,23.18
2022-07-29T17:22:15.618Z,23.17
2022-07-29T17:24:45.736Z,23.12
2022-07-29T17:27:12.306Z,23.20
2022-07-29T17:29:39.255Z,23.36
2022-07-29T17:32:07.726Z,23.28
2022-07-29T17:34:35.526Z,23.22
2022-07-29T17:37:02.246Z,23.13
2022-07-29T17:39:28.827Z,22.96
2022-07-29T17:41:55.580Z,22.87
2022-07-29T17:44:22.063Z,22.95
2022-07-29T17:46:48.621Z,23.03
2022-07-29T17:49:15.245Z,22.83
2022-07-29T17:51:41.768Z,22.76
2022-07-29T17:54:08.317Z,22.79
2022-07-29T17:56:34.840Z,22.71
2022-07-29T17:59:06.323Z,22.68
2022-07-29T18:01:33.919Z,22.58
2022-07-29T18:04:02.720Z,22.49
2022-07-29T18:06:29.500Z,22.34
2022-07-29T18:08:56.156Z,22.21
2022-07-29T18:11:23.403Z,22.19
2022-07-29T18:13:49.887Z,22.07
2022-07-29T18:16:16.558Z,22.06
2022-07-29T18:18:44.358Z,22.03
2022-07-29T18:21:11.117Z,22.00
2022-07-29T18:23:37.850Z,21.81
2022-07-29T18:26:04.395Z,21.89
2022-07-29T18:28:32.667Z,21.77
2022-07-29T18:31:00.190Z,21.74
2022-07-29T18:33:27.062Z,21.43
2022-07-29T18:36:11.080Z,21.33
2022-07-29T18:38:39.252Z,21.24
2022-07-29T18:41:05.805Z,21.17
2022-07-29T18:43:32.370Z,21.23
2022-07-29T18:45:58.845Z,21.17
2022-07-29T18:48:25.386Z,21.22
2022-07-29T18:50:51.905Z,21.35
2022-07-29T18:53:18.421Z,21.30
2022-07-29T18:55:45.243Z,21.25
2022-07-29T18:58:11.736Z,21.27
2022-07-29T19:00:38.607Z,21.35
2022-07-29T19:03:05.148Z,21.34
2022-07-29T19:05:31.808Z,21.37
2022-07-29T19:07:59.002Z,21.40
2022-07-29T19:10:25.602Z,21.45
2022-07-29T19:12:52.184Z,21.47
2022-07-29T19:15:20.343Z,21.39
2022-07-29T19:17:47.912Z,21.33
2022-07-29T19:20:15.149Z,21.34
2022-07-29T19:22:41.762Z,21.41
2022-07-29T19:25:09.225Z,21.40
2022-07-29T19:27:35.706Z,21.34
2022-07-29T19:30:03.413Z,21.40
2022-07-29T19:32:29.936Z,21.58
2022-07-29T19:35:15.052Z,21.74
2022-07-29T19:37:41.501Z,21.80
2022-07-29T19:40:09.725Z,21.88
2022-07-29T19:42:36.165Z,21.89
2022-07-29T19:45:02.705Z,21.92
2022-07-29T19:47:29.175Z,21.90
2022-07-29T19:49:55.616Z,21.87
2022-07-29T19:52:22.064Z,21.89
2022-07-29T19:54:48.501Z,22.02
2022-07-29T19:57:14.975Z,22.12
2022-07-29T19:59:41.417Z,22.15
2022-07-29T20:02:10.785Z,22.17
2022-07-29T20:04:37.818Z,22.17
2022-07-29T20:07:05.486Z,22.16
2022-07-29T20:09:32.071Z,22.13
2022-07-29T20:11:58.919Z,22.14
2022-07-29T20:14:25.398Z,22.08
2022-07-29T20:16:53.980Z,22.11
2022-07-29T20:19:20.453Z,22.14
2022-07-29T20:21:46.980Z,22.21
2022-07-29T20:24:13.524Z,22.18
2022-07-29T20:26:40.040Z,22.19
2022-07-29T20:29:06.568Z,22.14
2022-07-29T20:31:33.177Z,22.17
2022-07-29T20:34:01.458Z,22.07
2022-07-29T20:36:28.299Z,22.04
2022-07-29T20:38:55.424Z,22.16
2022-07-29T20:41:22.557Z,22.04
2022-07-29T20:43:49.845Z,21.84
2022-07-29T20:46:16.530Z,21.77
2022-07-29T20:48:43.220Z,21.95
2022-07-29T20:51:09.845Z,22.02
2022-07-29T20:53:38.424Z,22.05
2022-07-29T20:56:05.521Z,22.02
2022-07-29T20:58:33.974Z,21.99
2022-07-29T21:01:01.145Z,21.93
2022-07-29T21:03:27.670Z,21.88
2022-07-29T21:05:54.223Z,21.88
2022-07-29T21:08:20.824Z,21.91
2022-07-29T21:10:47.283Z,21.92
2022-07-29T21:13:14.342Z,21.90
2022-07-29T21:15:46.146Z,21.81
2022-07-29T21:18:26.989Z,21.67
2022-07-29T21:20:58.139Z,21.55
2022-07-29T21:23:25.277Z,21.57
2022-07-29T21:25:52.816Z,21.76
2022-07-29T21:28:36.784Z,21.83
2022-07-29T21:31:16.089Z,21.88
2022-07-29T21:33:45.886Z,21.89
2022-07-29T21:36:47.892Z,21.76
2022-07-29T21:38:59.780Z,21.76
2022-07-29T21:41:26.624Z,21.84
2022-07-29T21:43:54.578Z,21.78
2022-07-29T21:46:24.829Z,21.57
2022-07-29T21:48:51.452Z,21.54
2022-07-29T21:51:17.942Z,21.39
2022-07-29T21:53:44.385Z,21.43
2022-07-29T21:56:14.620Z,21.52
2022-07-29T21:58:41.726Z,21.49
2022-07-29T22:01:08.259Z,21.35
2022-07-29T22:03:34.752Z,21.26
2022-07-29T22:06:01.218Z,21.38
2022-07-29T22:08:27.648Z,21.54
2022-07-29T22:10:54.449Z,21.57
2022-07-29T22:13:21.014Z,21.63
2022-07-29T22:15:47.495Z,21.61
2022-07-29T22:18:20.767Z,21.61
2022-07-29T22:20:48.339Z,21.70
2022-07-29T22:23:14.841Z,21.71
2022-07-29T22:25:41.318Z,21.63
2022-07-29T22:28:07.788Z,21.47
2022-07-29T22:30:34.280Z,21.23
2022-07-29T22:33:00.787Z,21.18
2022-07-29T22:35:27.277Z,21.29
2022-07-29T22:37:54.178Z,21.25
2022-07-29T22:40:20.708Z,21.29
2022-07-29T22:42:47.221Z,21.30
2022-07-29T22:45:13.721Z,21.19
2022-07-29T22:47:48.040Z,21.20
2022-07-29T22:50:15.785Z,21.27
2022-07-29T22:52:42.348Z,21.29
2022-07-29T22:55:09.377Z,21.21
2022-07-29T22:57:35.875Z,21.19
2022-07-29T23:00:02.448Z,21.21
2022-07-29T23:02:29.178Z,21.10
2022-07-29T23:04:56.080Z,21.07
2022-07-29T23:07:23.399Z,21.07
2022-07-29T23:09:50.161Z,21.06
2022-07-29T23:12:16.589Z,21.13
2022-07-29T23:14:43.798Z,21.15
2022-07-29T23:17:10.330Z,21.18
2022-07-29T23:19:36.857Z,21.22
2022-07-29T23:22:03.624Z,21.27
2022-07-29T23:24:30.318Z,21.30
2022-07-29T23:26:56.810Z,21.14
2022-07-29T23:29:23.312Z,21.10
2022-07-29T23:31:49.827Z,21.16
2022-07-29T23:34:16.380Z,21.20
2022-07-29T23:36:42.933Z,21.18
2022-07-29T23:39:13.367Z,21.18
2022-07-29T23:41:40.286Z,21.09
2022-07-29T23:44:06.970Z,21.14
2022-07-29T23:46:33.567Z,21.16
2022-07-29T23:49:00.190Z,21.18
2022-07-29T23:51:28.929Z,21.12
2022-07-29T23:53:55.759Z,21.00
2022-07-29T23:56:22.256Z,20.99
2022-07-29T23:58:48.727Z,21.00
